createdAt,value
2019-03-27T00:01:31.832Z,27.82
2019-03-27T00:06:34.405Z,26.42
2019-03-27T00:11:38.157Z,29.55
2019-03-27T00:16:41.276Z,33.25
2019-03-27T00:21:43.984Z,32.53
2019-03-27T00:26:46.636Z,33.98
2019-03-27T00:31:49.295Z,29.32
2019-03-27T00:36:51.929Z,28.67
2019-03-27T00:41:54.845Z,27.85
2019-03-27T00:46:57.469Z,31.77
2019-03-27T00:52:00.096Z,31.62
2019-03-27T00:57:02.831Z,32.75
2019-03-27T01:02:05.573Z,28.92
2019-03-27T01:07:08.149Z,32.80
2019-03-27T01:12:10.781Z,26.95
2019-03-27T01:17:13.747Z,32.98
2019-03-27T01:22:16.495Z,30.08
2019-03-27T01:27:19.162Z,27.50
2019-03-27T01:32:21.792Z,34.92
2019-03-27T01:37:24.450Z,27.48
2019-03-27T01:42:27.499Z,27.32
2019-03-27T01:47:30.127Z,30.27
2019-03-27T01:52:32.747Z,27.02
2019-03-27T01:57:35.492Z,28.00
2019-03-27T02:02:38.349Z,33.42
2019-03-27T02:07:41.079Z,30.15
2019-03-27T02:12:43.902Z,27.37
2019-03-27T02:17:46.531Z,27.52
2019-03-27T02:22:49.105Z,32.50
2019-03-27T02:27:52.091Z,28.65
2019-03-27T02:32:55.930Z,26.35
2019-03-27T02:37:58.511Z,26.57
2019-03-27T02:43:01.159Z,30.00
2019-03-27T02:48:04.184Z,33.50
2019-03-27T02:53:06.745Z,38.48
2019-03-27T02:58:09.354Z,25.68
2019-03-27T03:03:11.955Z,32.15
2019-03-27T03:08:14.536Z,32.83
2019-03-27T03:13:17.134Z,27.15
2019-03-27T03:18:21.153Z,38.53
2019-03-27T03:23:24.389Z,25.52
2019-03-27T03:28:27.093Z,27.00
2019-03-27T03:33:29.830Z,27.10
2019-03-27T03:38:32.525Z,36.77
2019-03-27T03:43:35.200Z,30.17
2019-03-27T03:48:38.042Z,29.87
2019-03-27T03:53:40.751Z,34.13
2019-03-27T03:58:45.812Z,29.72
2019-03-27T04:03:50.569Z,31.23
2019-03-27T04:08:53.156Z,34.43
2019-03-27T04:13:55.724Z,34.33
2019-03-27T04:18:58.274Z,31.40
2019-03-27T04:24:00.919Z,30.82
2019-03-27T04:29:03.596Z,33.90
2019-03-27T04:34:06.234Z,37.35
2019-03-27T04:39:09.127Z,36.77
2019-03-27T04:44:12.077Z,45.50
2019-03-27T04:49:14.654Z,42.25
2019-03-27T04:54:17.305Z,42.08
2019-03-27T04:59:20.003Z,37.93
2019-03-27T05:04:23.431Z,37.60
2019-03-27T05:09:26.162Z,43.38
2019-03-27T05:14:31.337Z,36.70
2019-03-27T05:19:34.343Z,34.30
2019-03-27T05:24:36.992Z,37.25
2019-03-27T05:29:39.822Z,40.25
2019-03-27T05:34:42.595Z,37.40
2019-03-27T05:39:45.174Z,37.53
2019-03-27T05:44:48.546Z,37.40
2019-03-27T05:49:51.223Z,41.80
2019-03-27T05:54:53.782Z,37.33
2019-03-27T05:59:56.466Z,42.80
2019-03-27T06:04:59.159Z,44.70
2019-03-27T06:10:01.891Z,43.92
2019-03-27T06:15:04.683Z,40.83
2019-03-27T06:20:07.279Z,45.67
2019-03-27T06:25:10.241Z,39.40
2019-03-27T06:30:12.981Z,37.30
2019-03-27T06:35:15.644Z,44.25
2019-03-27T06:40:18.245Z,42.38
2019-03-27T06:45:21.206Z,41.60
2019-03-27T06:50:23.784Z,50.35
2019-03-27T06:55:26.901Z,37.40
2019-03-27T07:00:34.161Z,45.45
2019-03-27T07:05:36.764Z,49.03
2019-03-27T07:10:39.655Z,47.53
2019-03-27T07:15:42.298Z,53.95
2019-03-27T07:20:44.940Z,52.50
2019-03-27T07:25:47.639Z,52.15
2019-03-27T07:30:50.310Z,44.65
2019-03-27T07:35:52.901Z,43.15
2019-03-27T07:40:55.484Z,49.70
2019-03-27T07:45:58.089Z,48.28
2019-03-27T07:51:00.752Z,49.50
2019-03-27T07:56:03.541Z,41.28
2019-03-27T08:01:06.207Z,48.20
2019-03-27T08:06:09.058Z,42.38
2019-03-27T08:11:11.634Z,41.40
2019-03-27T08:16:14.260Z,41.33
2019-03-27T08:21:16.869Z,43.50
2019-03-27T08:26:19.426Z,39.65
2019-03-27T08:31:22.154Z,40.73
2019-03-27T08:36:24.823Z,41.18
2019-03-27T08:41:27.365Z,39.45
2019-03-27T08:46:30.102Z,29.63
2019-03-27T08:51:32.992Z,29.50
2019-03-27T08:56:35.564Z,31.57
2019-03-27T09:01:38.235Z,35.23
2019-03-27T09:06:40.208Z,28.25
2019-03-27T09:11:42.329Z,35.20
2019-03-27T09:16:44.325Z,30.43
2019-03-27T09:21:46.305Z,31.27
2019-03-27T09:26:48.319Z,33.05
2019-03-27T09:31:50.529Z,28.87
2019-03-27T09:36:52.436Z,32.08
2019-03-27T09:41:54.411Z,24.82
2019-03-27T09:46:56.279Z,18.75
2019-03-27T09:51:59.632Z,16.50
2019-03-27T09:57:01.599Z,22.32
2019-03-27T10:02:03.604Z,24.32
2019-03-27T10:07:05.532Z,23.18
2019-03-27T10:12:07.523Z,25.37
2019-03-27T10:17:09.401Z,18.23
2019-03-27T10:22:11.380Z,22.42
2019-03-27T10:27:13.391Z,21.90
2019-03-27T10:32:15.360Z,20.02
2019-03-27T10:37:17.367Z,9.33
2019-03-27T10:42:19.235Z,16.25
2019-03-27T10:47:21.238Z,17.12
2019-03-27T10:52:23.222Z,17.57
2019-03-27T10:57:25.168Z,18.70
2019-03-27T11:02:27.055Z,11.60
2019-03-27T11:07:28.928Z,16.02
2019-03-27T11:12:32.317Z,16.85
2019-03-27T11:17:34.288Z,16.90
2019-03-27T11:22:36.252Z,12.60
2019-03-27T11:27:38.200Z,12.23
2019-03-27T11:32:40.187Z,10.28
2019-03-27T11:37:42.192Z,8.53
2019-03-27T11:42:44.155Z,10.68
2019-03-27T11:47:46.104Z,10.60
2019-03-27T11:52:48.048Z,8.65
2019-03-27T11:57:50.010Z,17.87
2019-03-27T12:02:51.988Z,12.82
2019-03-27T12:07:53.992Z,11.50
2019-03-27T12:12:56.147Z,11.05
2019-03-27T12:17:58.012Z,9.38
2019-03-27T12:22:59.983Z,14.15
2019-03-27T12:28:01.981Z,15.60
2019-03-27T12:33:04.014Z,12.70
2019-03-27T12:38:06.051Z,10.60
2019-03-27T12:43:08.014Z,16.57
2019-03-27T12:48:09.982Z,14.70
2019-03-27T12:53:12.036Z,12.65
2019-03-27T12:58:14.252Z,11.83
2019-03-27T13:03:16.200Z,14.68
2019-03-27T13:08:18.389Z,11.40
2019-03-27T13:13:20.369Z,11.68
2019-03-27T13:18:22.358Z,12.05
2019-03-27T13:23:24.328Z,15.13
2019-03-27T13:28:26.131Z,15.58
2019-03-27T13:33:28.158Z,21.87
2019-03-27T13:38:30.344Z,13.45
2019-03-27T13:43:32.458Z,13.40
2019-03-27T13:48:34.434Z,12.25
2019-03-27T13:53:36.441Z,14.18
2019-03-27T13:58:38.361Z,14.75
2019-03-27T14:03:40.299Z,12.58
2019-03-27T14:08:42.282Z,13.18
2019-03-27T14:13:44.500Z,15.72
2019-03-27T14:18:48.951Z,16.32
2019-03-27T14:23:50.557Z,12.73
2019-03-27T14:28:52.545Z,17.37
2019-03-27T14:33:54.553Z,11.33
2019-03-27T14:38:56.512Z,14.15
2019-03-27T14:43:58.400Z,16.10
2019-03-27T14:49:00.387Z,12.75
2019-03-27T14:54:02.266Z,17.17
2019-03-27T14:59:04.232Z,17.17
2019-03-27T15:04:06.194Z,14.70
2019-03-27T15:09:08.444Z,16.12
2019-03-27T15:14:10.401Z,14.50
2019-03-27T15:19:12.467Z,17.90
2019-03-27T15:24:14.596Z,14.03
2019-03-27T15:29:16.571Z,15.53
2019-03-27T15:34:18.502Z,16.07
2019-03-27T15:39:20.483Z,14.33
2019-03-27T15:44:23.460Z,13.75
2019-03-27T15:49:25.372Z,15.43
2019-03-27T15:54:27.368Z,12.60
2019-03-27T15:59:29.349Z,14.85
2019-03-27T16:04:31.308Z,20.30
2019-03-27T16:09:33.274Z,18.48
2019-03-27T16:14:38.014Z,15.10
2019-03-27T16:19:40.136Z,16.65
2019-03-27T16:24:42.107Z,15.05
2019-03-27T16:29:44.035Z,18.42
2019-03-27T16:34:46.130Z,18.82
2019-03-27T16:39:47.996Z,18.73
2019-03-27T16:44:50.361Z,23.80
2019-03-27T16:49:52.338Z,21.65
2019-03-27T16:54:54.346Z,15.78
2019-03-27T16:59:56.507Z,17.32
2019-03-27T17:04:58.481Z,15.45
2019-03-27T17:10:00.534Z,24.23
2019-03-27T17:15:02.648Z,19.35
2019-03-27T17:20:05.348Z,19.82
2019-03-27T17:25:07.708Z,18.75
2019-03-27T17:30:09.848Z,16.32
2019-03-27T17:35:12.029Z,19.73
2019-03-27T17:40:14.031Z,19.27
2019-03-27T17:45:15.903Z,21.73
2019-03-27T17:50:18.254Z,16.85
2019-03-27T17:55:20.314Z,15.83
2019-03-27T18:00:41.322Z,17.12
2019-03-27T18:05:43.294Z,23.67
2019-03-27T18:10:45.553Z,17.90
2019-03-27T18:15:47.507Z,20.23
2019-03-27T18:20:49.460Z,18.10
2019-03-27T18:25:51.299Z,26.77
2019-03-27T18:30:53.310Z,20.68
2019-03-27T18:35:55.548Z,18.52
2019-03-27T18:40:57.535Z,18.77
2019-03-27T18:45:59.513Z,18.85
2019-03-27T18:51:01.710Z,21.42
2019-03-27T18:56:03.712Z,23.50
2019-03-27T19:01:05.599Z,17.82
2019-03-27T19:06:07.590Z,19.75
2019-03-27T19:11:09.530Z,21.37
2019-03-27T19:16:11.390Z,20.90
2019-03-27T19:21:13.370Z,19.77
2019-03-27T19:26:15.351Z,28.45
2019-03-27T19:31:17.293Z,19.17
2019-03-27T19:36:19.320Z,22.07
2019-03-27T19:41:21.286Z,23.38
2019-03-27T19:46:23.321Z,21.35
2019-03-27T19:51:25.361Z,23.35
2019-03-27T19:56:27.351Z,21.48
2019-03-27T20:01:29.311Z,21.33
2019-03-27T20:06:34.258Z,23.67
2019-03-27T20:11:36.374Z,30.32
2019-03-27T20:16:38.721Z,21.82
2019-03-27T20:21:40.931Z,26.07
2019-03-27T20:26:51.890Z,25.45
2019-03-27T20:31:54.965Z,22.95
2019-03-27T20:36:57.530Z,25.65
2019-03-27T20:42:00.104Z,27.20
2019-03-27T20:47:02.040Z,28.92
2019-03-27T20:52:04.370Z,33.95
2019-03-27T20:57:06.427Z,31.07
2019-03-27T21:02:12.353Z,30.65
2019-03-27T21:07:14.529Z,32.50
2019-03-27T21:12:22.894Z,34.03
2019-03-27T21:17:25.495Z,27.48
2019-03-27T21:22:28.339Z,30.20
2019-03-27T21:27:32.202Z,33.83
2019-03-27T21:32:37.922Z,32.80
2019-03-27T21:37:40.192Z,26.33
2019-03-27T21:42:42.434Z,28.85
2019-03-27T21:47:44.375Z,27.55
2019-03-27T21:52:59.489Z,25.50
2019-03-27T21:57:50.342Z,26.57
2019-03-27T22:02:52.328Z,24.15
2019-03-27T22:07:54.352Z,25.77
2019-03-27T22:12:56.313Z,27.02
2019-03-27T22:17:58.173Z,26.68
2019-03-27T22:23:00.344Z,25.02
2019-03-27T22:33:17.727Z,30.80
2019-03-27T22:38:19.730Z,28.17
2019-03-27T22:43:21.732Z,24.27
2019-03-27T22:48:25.683Z,29.02
2019-03-27T22:53:27.603Z,29.27
2019-03-27T22:58:29.561Z,26.37
2019-03-27T23:03:31.508Z,25.70
2019-03-27T23:08:33.534Z,31.02
2019-03-27T23:13:36.650Z,30.97
2019-03-27T23:18:39.303Z,30.95
2019-03-27T23:23:41.552Z,34.92
2019-03-27T23:28:43.861Z,33.33
2019-03-27T23:33:45.912Z,39.33
2019-03-27T23:38:47.924Z,29.48
2019-03-27T23:43:49.927Z,33.75
2019-03-27T23:48:51.925Z,27.65
2019-03-27T23:53:53.840Z,28.17
2019-03-27T23:58:55.912Z,31.68
